sensor_id;sensor_type;location;lat;lon;timestamp;pressure;altitude;pressure_sealevel;temperature;humidity
75740;BME280;64357;51.344;6.550;2023-03-14T00:02:08;98759.41;;;11.35;77.75
75740;BME280;64357;51.344;6.550;2023-03-14T00:04:38;98752.72;;;11.50;77.10
75740;BME280;64357;51.344;6.550;2023-03-14T00:07:03;98752.50;;;11.47;76.95
75740;BME280;64357;51.344;6.550;2023-03-14T00:09:29;98751.69;;;11.48;76.69
75740;BME280;64357;51.344;6.550;2023-03-14T00:11:55;98750.91;;;11.49;77.12
75740;BME280;64357;51.344;6.550;2023-03-14T00:14:21;98738.25;;;11.51;76.89
75740;BME280;64357;51.344;6.550;2023-03-14T00:16:48;98743.75;;;11.57;76.92
75740;BME280;64357;51.344;6.550;2023-03-14T00:19:14;98751.41;;;11.57;79.22
75740;BME280;64357;51.344;6.550;2023-03-14T00:21:40;98760.78;;;11.30;81.48
75740;BME280;64357;51.344;6.550;2023-03-14T00:24:05;98751.00;;;11.09;83.07
75740;BME280;64357;51.344;6.550;2023-03-14T00:26:33;98751.38;;;11.02;83.74
75740;BME280;64357;51.344;6.550;2023-03-14T00:29:03;98755.03;;;10.79;84.27
75740;BME280;64357;51.344;6.550;2023-03-14T00:31:28;98760.63;;;10.74;85.22
75740;BME280;64357;51.344;6.550;2023-03-14T00:33:54;98780.91;;;10.59;86.10
75740;BME280;64357;51.344;6.550;2023-03-14T00:36:20;98779.81;;;10.55;86.27
75740;BME280;64357;51.344;6.550;2023-03-14T00:38:48;98766.72;;;10.37;86.55
75740;BME280;64357;51.344;6.550;2023-03-14T00:41:16;98779.06;;;10.31;87.71
75740;BME280;64357;51.344;6.550;2023-03-14T00:43:42;98778.09;;;10.29;86.53
75740;BME280;64357;51.344;6.550;2023-03-14T00:46:08;98776.22;;;10.27;86.54
75740;BME280;64357;51.344;6.550;2023-03-14T00:48:34;98791.84;;;10.20;86.84
75740;BME280;64357;51.344;6.550;2023-03-14T00:51:00;98786.09;;;10.22;86.78
75740;BME280;64357;51.344;6.550;2023-03-14T00:53:26;98779.88;;;10.19;86.63
75740;BME280;64357;51.344;6.550;2023-03-14T00:55:54;98787.91;;;10.11;86.92
75740;BME280;64357;51.344;6.550;2023-03-14T00:58:19;98781.38;;;10.15;86.58
75740;BME280;64357;51.344;6.550;2023-03-14T01:00:45;98782.25;;;10.15;86.67
75740;BME280;64357;51.344;6.550;2023-03-14T01:03:11;98783.84;;;10.02;87.40
75740;BME280;64357;51.344;6.550;2023-03-14T01:05:37;98785.91;;;10.07;86.39
75740;BME280;64357;51.344;6.550;2023-03-14T01:08:04;98778.41;;;10.09;86.75
75740;BME280;64357;51.344;6.550;2023-03-14T01:10:29;98772.59;;;10.11;86.20
75740;BME280;64357;51.344;6.550;2023-03-14T01:12:57;98764.31;;;10.02;86.73
75740;BME280;64357;51.344;6.550;2023-03-14T01:15:23;98769.41;;;10.02;85.64
75740;BME280;64357;51.344;6.550;2023-03-14T01:17:51;98767.56;;;10.00;85.96
75740;BME280;64357;51.344;6.550;2023-03-14T01:20:18;98775.47;;;9.91;86.41
75740;BME280;64357;51.344;6.550;2023-03-14T01:22:46;98775.25;;;9.88;86.64
75740;BME280;64357;51.344;6.550;2023-03-14T01:25:14;98777.28;;;9.80;87.00
75740;BME280;64357;51.344;6.550;2023-03-14T01:27:39;98776.41;;;9.80;86.68
75740;BME280;64357;51.344;6.550;2023-03-14T01:30:05;98772.41;;;9.72;86.42
75740;BME280;64357;51.344;6.550;2023-03-14T01:32:35;98770.66;;;9.71;86.99
75740;BME280;64357;51.344;6.550;2023-03-14T01:35:01;98759.34;;;9.67;87.05
75740;BME280;64357;51.344;6.550;2023-03-14T01:37:28;98756.50;;;9.63;87.43
75740;BME280;64357;51.344;6.550;2023-03-14T01:39:56;98763.56;;;9.67;86.48
75740;BME280;64357;51.344;6.550;2023-03-14T01:42:21;98761.69;;;9.64;86.93
75740;BME280;64357;51.344;6.550;2023-03-14T01:44:48;98753.59;;;9.70;86.72
75740;BME280;64357;51.344;6.550;2023-03-14T01:47:13;98753.81;;;9.61;86.96
75740;BME280;64357;51.344;6.550;2023-03-14T01:49:39;98762.53;;;9.76;85.82
75740;BME280;64357;51.344;6.550;2023-03-14T01:52:09;98764.53;;;9.80;85.32
75740;BME280;64357;51.344;6.550;2023-03-14T01:54:54;98760.84;;;9.88;84.73
75740;BME280;64357;51.344;6.550;2023-03-14T01:57:27;98767.22;;;9.95;85.02
75740;BME280;64357;51.344;6.550;2023-03-14T02:00:01;98764.25;;;9.89;85.21
75740;BME280;64357;51.344;6.550;2023-03-14T02:02:29;98761.81;;;9.91;84.96
75740;BME280;64357;51.344;6.550;2023-03-14T02:04:56;98748.72;;;9.98;84.35
75740;BME280;64357;51.344;6.550;2023-03-14T02:10:03;98732.94;;;9.78;85.44
75740;BME280;64357;51.344;6.550;2023-03-14T02:12:29;98731.38;;;9.80;85.70
75740;BME280;64357;51.344;6.550;2023-03-14T02:14:54;98727.72;;;9.77;85.79
75740;BME280;64357;51.344;6.550;2023-03-14T02:17:21;98733.88;;;9.92;85.13
75740;BME280;64357;51.344;6.550;2023-03-14T02:22:47;98740.75;;;9.93;85.41
75740;BME280;64357;51.344;6.550;2023-03-14T02:27:47;98744.50;;;9.98;85.00
75740;BME280;64357;51.344;6.550;2023-03-14T02:32:46;98745.22;;;9.84;85.90
75740;BME280;64357;51.344;6.550;2023-03-14T02:35:21;98743.69;;;9.86;86.35
75740;BME280;64357;51.344;6.550;2023-03-14T02:40:19;98758.09;;;9.85;86.38
75740;BME280;64357;51.344;6.550;2023-03-14T02:42:44;98755.84;;;9.90;85.90
75740;BME280;64357;51.344;6.550;2023-03-14T02:47:43;98751.22;;;10.09;85.12
75740;BME280;64357;51.344;6.550;2023-03-14T02:50:14;98756.78;;;10.04;85.83
75740;BME280;64357;51.344;6.550;2023-03-14T02:52:41;98745.50;;;10.13;84.71
75740;BME280;64357;51.344;6.550;2023-03-14T02:55:11;98749.59;;;9.98;85.33
75740;BME280;64357;51.344;6.550;2023-03-14T02:57:41;98733.41;;;9.98;85.25
75740;BME280;64357;51.344;6.550;2023-03-14T03:00:12;98742.38;;;10.04;85.16
75740;BME280;64357;51.344;6.550;2023-03-14T03:02:44;98732.81;;;10.02;85.08
75740;BME280;64357;51.344;6.550;2023-03-14T03:05:12;98741.25;;;10.01;85.45
75740;BME280;64357;51.344;6.550;2023-03-14T03:07:37;98725.16;;;10.02;85.32
75740;BME280;64357;51.344;6.550;2023-03-14T03:10:03;98724.28;;;10.01;84.91
75740;BME280;64357;51.344;6.550;2023-03-14T03:12:31;98719.88;;;9.99;85.04
75740;BME280;64357;51.344;6.550;2023-03-14T03:14:56;98728.66;;;10.15;84.15
75740;BME280;64357;51.344;6.550;2023-03-14T03:17:22;98725.41;;;10.05;84.16
75740;BME280;64357;51.344;6.550;2023-03-14T03:19:51;98734.41;;;10.00;85.19
75740;BME280;64357;51.344;6.550;2023-03-14T03:22:17;98726.25;;;9.92;85.26
75740;BME280;64357;51.344;6.550;2023-03-14T03:24:44;98729.81;;;10.07;84.36
75740;BME280;64357;51.344;6.550;2023-03-14T03:27:12;98739.75;;;10.16;84.03
75740;BME280;64357;51.344;6.550;2023-03-14T03:29:37;98737.09;;;10.14;84.51
75740;BME280;64357;51.344;6.550;2023-03-14T03:32:02;98729.38;;;10.01;86.34
75740;BME280;64357;51.344;6.550;2023-03-14T03:34:28;98720.94;;;10.02;86.47
75740;BME280;64357;51.344;6.550;2023-03-14T03:36:56;98713.09;;;9.99;87.06
75740;BME280;64357;51.344;6.550;2023-03-14T03:39:21;98719.78;;;9.97;86.84
75740;BME280;64357;51.344;6.550;2023-03-14T03:41:49;98711.91;;;9.94;87.55
75740;BME280;64357;51.344;6.550;2023-03-14T03:44:14;98707.38;;;9.90;87.38
75740;BME280;64357;51.344;6.550;2023-03-14T03:46:40;98712.84;;;9.83;87.71
75740;BME280;64357;51.344;6.550;2023-03-14T03:49:07;98714.31;;;9.79;87.99
75740;BME280;64357;51.344;6.550;2023-03-14T03:51:33;98700.31;;;9.86;87.52
75740;BME280;64357;51.344;6.550;2023-03-14T03:53:58;98714.31;;;9.79;87.61
75740;BME280;64357;51.344;6.550;2023-03-14T03:56:26;98698.56;;;9.85;88.14
75740;BME280;64357;51.344;6.550;2023-03-14T03:58:51;98706.00;;;9.82;88.46
75740;BME280;64357;51.344;6.550;2023-03-14T04:01:19;98713.69;;;9.70;89.24
75740;BME280;64357;51.344;6.550;2023-03-14T04:03:47;98699.28;;;9.71;89.88
75740;BME280;64357;51.344;6.550;2023-03-14T04:06:13;98701.88;;;9.59;90.43
75740;BME280;64357;51.344;6.550;2023-03-14T04:08:42;98698.25;;;9.44;91.04
75740;BME280;64357;51.344;6.550;2023-03-14T04:11:08;98710.94;;;9.30;92.62
75740;BME280;64357;51.344;6.550;2023-03-14T04:13:36;98701.94;;;9.35;92.70
75740;BME280;64357;51.344;6.550;2023-03-14T04:16:01;98710.84;;;9.29;92.55
75740;BME280;64357;51.344;6.550;2023-03-14T04:18:29;98704.78;;;9.15;93.63
75740;BME280;64357;51.344;6.550;2023-03-14T04:20:56;98696.56;;;9.19;94.16
75740;BME280;64357;51.344;6.550;2023-03-14T04:23:23;98696.91;;;9.12;94.00
75740;BME280;64357;51.344;6.550;2023-03-14T04:25:51;98692.16;;;9.05;94.71
75740;BME280;64357;51.344;6.550;2023-03-14T04:28:17;98689.94;;;9.10;94.67
75740;BME280;64357;51.344;6.550;2023-03-14T04:30:42;98695.78;;;9.08;94.56
75740;BME280;64357;51.344;6.550;2023-03-14T04:33:08;98695.50;;;8.92;95.28
75740;BME280;64357;51.344;6.550;2023-03-14T04:35:34;98701.47;;;9.04;94.56
75740;BME280;64357;51.344;6.550;2023-03-14T04:38:02;98692.72;;;9.01;94.19
75740;BME280;64357;51.344;6.550;2023-03-14T04:40:27;98697.28;;;8.93;95.45
75740;BME280;64357;51.344;6.550;2023-03-14T04:42:53;98700.81;;;8.95;96.11
75740;BME280;64357;51.344;6.550;2023-03-14T04:45:21;98688.97;;;8.84;96.79
75740;BME280;64357;51.344;6.550;2023-03-14T04:47:48;98695.63;;;8.82;97.16
75740;BME280;64357;51.344;6.550;2023-03-14T04:50:16;98691.66;;;8.86;97.48
75740;BME280;64357;51.344;6.550;2023-03-14T04:52:41;98681.22;;;8.82;97.68
75740;BME280;64357;51.344;6.550;2023-03-14T04:55:07;98678.50;;;8.79;97.65
75740;BME280;64357;51.344;6.550;2023-03-14T04:57:32;98673.94;;;8.64;99.05
75740;BME280;64357;51.344;6.550;2023-03-14T04:59:57;98669.72;;;8.76;98.46
75740;BME280;64357;51.344;6.550;2023-03-14T05:02:23;98662.66;;;8.72;98.07
75740;BME280;64357;51.344;6.550;2023-03-14T05:04:48;98670.19;;;8.70;98.27
75740;BME280;64357;51.344;6.550;2023-03-14T05:07:16;98660.78;;;8.58;98.44
75740;BME280;64357;51.344;6.550;2023-03-14T05:09:44;98658.34;;;8.59;99.37
75740;BME280;64357;51.344;6.550;2023-03-14T05:12:10;98658.78;;;8.77;98.64
75740;BME280;64357;51.344;6.550;2023-03-14T05:14:35;98659.44;;;8.74;98.93
75740;BME280;64357;51.344;6.550;2023-03-14T05:17:00;98651.03;;;8.75;98.66
75740;BME280;64357;51.344;6.550;2023-03-14T05:19:28;98651.94;;;8.64;99.23
75740;BME280;64357;51.344;6.550;2023-03-14T05:21:56;98650.03;;;8.62;100.00
75740;BME280;64357;51.344;6.550;2023-03-14T05:24:21;98626.16;;;8.48;100.00
75740;BME280;64357;51.344;6.550;2023-03-14T05:26:49;98636.09;;;8.68;99.80
75740;BME280;64357;51.344;6.550;2023-03-14T05:29:15;98619.38;;;8.72;99.20
75740;BME280;64357;51.344;6.550;2023-03-14T05:31:43;98626.22;;;8.73;99.62
75740;BME280;64357;51.344;6.550;2023-03-14T05:34:13;98625.69;;;8.77;99.78
75740;BME280;64357;51.344;6.550;2023-03-14T05:36:38;98621.03;;;8.83;100.00
75740;BME280;64357;51.344;6.550;2023-03-14T05:39:04;98617.84;;;8.74;99.90
75740;BME280;64357;51.344;6.550;2023-03-14T05:41:29;98628.69;;;8.71;100.00
75740;BME280;64357;51.344;6.550;2023-03-14T05:43:54;98625.97;;;8.93;99.77
75740;BME280;64357;51.344;6.550;2023-03-14T05:46:20;98616.59;;;8.92;98.93
75740;BME280;64357;51.344;6.550;2023-03-14T05:48:49;98617.56;;;8.94;99.02
75740;BME280;64357;51.344;6.550;2023-03-14T05:51:15;98617.56;;;8.94;99.53
75740;BME280;64357;51.344;6.550;2023-03-14T05:53:41;98618.13;;;8.90;99.58
75740;BME280;64357;51.344;6.550;2023-03-14T05:56:06;98614.28;;;9.08;99.05
75740;BME280;64357;51.344;6.550;2023-03-14T05:58:32;98612.25;;;9.03;98.72
75740;BME280;64357;51.344;6.550;2023-03-14T06:00:57;98611.41;;;9.16;98.58
75740;BME280;64357;51.344;6.550;2023-03-14T06:03:26;98613.28;;;9.18;98.18
75740;BME280;64357;51.344;6.550;2023-03-14T06:05:51;98614.63;;;9.13;98.17
75740;BME280;64357;51.344;6.550;2023-03-14T06:08:19;98619.16;;;9.17;98.41
75740;BME280;64357;51.344;6.550;2023-03-14T06:10:44;98615.03;;;9.19;98.48
75740;BME280;64357;51.344;6.550;2023-03-14T06:13:09;98613.38;;;9.20;97.97
75740;BME280;64357;51.344;6.550;2023-03-14T06:15:37;98615.28;;;9.22;97.64
75740;BME280;64357;51.344;6.550;2023-03-14T06:18:03;98618.13;;;9.27;97.66
75740;BME280;64357;51.344;6.550;2023-03-14T06:20:33;98619.22;;;9.30;97.60
75740;BME280;64357;51.344;6.550;2023-03-14T06:23:02;98622.97;;;9.35;97.87
75740;BME280;64357;51.344;6.550;2023-03-14T06:25:28;98627.53;;;9.28;97.71
75740;BME280;64357;51.344;6.550;2023-03-14T06:27:53;98610.31;;;9.37;97.65
75740;BME280;64357;51.344;6.550;2023-03-14T06:30:18;98622.78;;;9.32;98.08
75740;BME280;64357;51.344;6.550;2023-03-14T06:32:44;98608.38;;;9.33;98.12
75740;BME280;64357;51.344;6.550;2023-03-14T06:35:11;98610.31;;;9.37;98.44
75740;BME280;64357;51.344;6.550;2023-03-14T06:37:37;98618.75;;;9.36;98.44
75740;BME280;64357;51.344;6.550;2023-03-14T06:40:02;98622.91;;;9.47;97.93
75740;BME280;64357;51.344;6.550;2023-03-14T06:42:30;98620.59;;;9.50;97.87
75740;BME280;64357;51.344;6.550;2023-03-14T06:44:55;98624.16;;;9.41;97.79
75740;BME280;64357;51.344;6.550;2023-03-14T06:47:23;98619.13;;;9.29;98.46
75740;BME280;64357;51.344;6.550;2023-03-14T06:49:50;98620.50;;;9.37;98.61
75740;BME280;64357;51.344;6.550;2023-03-14T06:52:18;98623.75;;;9.34;98.67
75740;BME280;64357;51.344;6.550;2023-03-14T06:54:44;98625.19;;;9.31;98.20
75740;BME280;64357;51.344;6.550;2023-03-14T06:57:09;98629.91;;;9.50;97.97
75740;BME280;64357;51.344;6.550;2023-03-14T06:59:34;98622.81;;;9.46;97.04
75740;BME280;64357;51.344;6.550;2023-03-14T07:01:59;98628.31;;;9.52;97.43
75740;BME280;64357;51.344;6.550;2023-03-14T07:04:25;98629.22;;;9.52;97.33
75740;BME280;64357;51.344;6.550;2023-03-14T07:06:53;98635.50;;;9.57;96.85
75740;BME280;64357;51.344;6.550;2023-03-14T07:09:23;98642.94;;;9.54;96.77
75740;BME280;64357;51.344;6.550;2023-03-14T07:11:49;98641.19;;;9.67;96.13
75740;BME280;64357;51.344;6.550;2023-03-14T07:14:14;98646.56;;;9.83;95.75
75740;BME280;64357;51.344;6.550;2023-03-14T07:16:39;98640.25;;;9.78;96.48
75740;BME280;64357;51.344;6.550;2023-03-14T07:19:05;98638.25;;;9.85;95.66
75740;BME280;64357;51.344;6.550;2023-03-14T07:21:30;98645.81;;;9.72;96.62
75740;BME280;64357;51.344;6.550;2023-03-14T07:23:57;98645.75;;;9.84;96.43
75740;BME280;64357;51.344;6.550;2023-03-14T07:26:24;98645.47;;;9.79;96.72
75740;BME280;64357;51.344;6.550;2023-03-14T07:28:49;98648.13;;;9.81;97.04
75740;BME280;64357;51.344;6.550;2023-03-14T07:31:15;98643.41;;;9.74;97.54
75740;BME280;64357;51.344;6.550;2023-03-14T07:33:40;98656.03;;;9.72;97.80
75740;BME280;64357;51.344;6.550;2023-03-14T07:36:06;98652.56;;;9.58;98.91
75740;BME280;64357;51.344;6.550;2023-03-14T07:38:35;98658.63;;;9.60;99.32
75740;BME280;64357;51.344;6.550;2023-03-14T07:41:04;98655.06;;;9.70;98.82
75740;BME280;64357;51.344;6.550;2023-03-14T07:43:30;98662.63;;;9.82;99.00
75740;BME280;64357;51.344;6.550;2023-03-14T07:45:58;98668.53;;;9.81;98.90
75740;BME280;64357;51.344;6.550;2023-03-14T07:48:28;98668.53;;;9.81;99.27
75740;BME280;64357;51.344;6.550;2023-03-14T07:50:54;98674.03;;;9.87;99.88
75740;BME280;64357;51.344;6.550;2023-03-14T07:53:21;98678.34;;;9.88;99.51
75740;BME280;64357;51.344;6.550;2023-03-14T07:55:47;98679.72;;;9.96;99.27
75740;BME280;64357;51.344;6.550;2023-03-14T07:58:13;98684.66;;;9.93;98.95
75740;BME280;64357;51.344;6.550;2023-03-14T08:00:38;98677.66;;;9.91;99.11
75740;BME280;64357;51.344;6.550;2023-03-14T08:03:03;98679.25;;;10.02;99.23
75740;BME280;64357;51.344;6.550;2023-03-14T08:05:29;98681.97;;;10.17;98.85
75740;BME280;64357;51.344;6.550;2023-03-14T08:07:54;98671.75;;;10.17;97.41
75740;BME280;64357;51.344;6.550;2023-03-14T08:10:20;98680.47;;;10.32;97.76
75740;BME280;64357;51.344;6.550;2023-03-14T08:12:49;98679.94;;;10.24;97.32
75740;BME280;64357;51.344;6.550;2023-03-14T08:15:17;98681.38;;;10.21;98.73
75740;BME280;64357;51.344;6.550;2023-03-14T08:17:43;98685.81;;;10.23;97.79
75740;BME280;64357;51.344;6.550;2023-03-14T08:20:08;98687.47;;;10.23;98.24
75740;BME280;64357;51.344;6.550;2023-03-14T08:22:36;98688.28;;;9.97;99.46
75740;BME280;64357;51.344;6.550;2023-03-14T08:25:02;98682.72;;;9.77;100.00
75740;BME280;64357;51.344;6.550;2023-03-14T08:27:27;98697.19;;;9.65;100.00
75740;BME280;64357;51.344;6.550;2023-03-14T08:29:55;98706.03;;;9.70;100.00
75740;BME280;64357;51.344;6.550;2023-03-14T08:32:20;98692.00;;;9.64;100.00
75740;BME280;64357;51.344;6.550;2023-03-14T08:34:47;98696.81;;;9.72;100.00
75740;BME280;64357;51.344;6.550;2023-03-14T08:37:12;98694.69;;;9.78;100.00
75740;BME280;64357;51.344;6.550;2023-03-14T08:39:38;98699.53;;;9.62;96.48
75740;BME280;64357;51.344;6.550;2023-03-14T08:42:05;98707.34;;;9.52;96.21
75740;BME280;64357;51.344;6.550;2023-03-14T08:44:31;98708.56;;;9.45;97.49
75740;BME280;64357;51.344;6.550;2023-03-14T08:46:57;98710.53;;;9.49;98.49
75740;BME280;64357;51.344;6.550;2023-03-14T08:49:24;98726.00;;;9.64;98.57
75740;BME280;64357;51.344;6.550;2023-03-14T08:51:49;98724.84;;;9.72;98.56
75740;BME280;64357;51.344;6.550;2023-03-14T08:54:15;98731.94;;;9.76;98.51
75740;BME280;64357;51.344;6.550;2023-03-14T08:56:40;98731.06;;;9.76;97.82
75740;BME280;64357;51.344;6.550;2023-03-14T08:59:06;98734.97;;;9.71;97.45
75740;BME280;64357;51.344;6.550;2023-03-14T09:01:31;98747.19;;;9.63;97.80
75740;BME280;64357;51.344;6.550;2023-03-14T09:03:56;98820.00;;;8.66;99.85
75740;BME280;64357;51.344;6.550;2023-03-14T09:06:22;98819.94;;;8.20;97.65
75740;BME280;64357;51.344;6.550;2023-03-14T09:08:47;98842.72;;;8.19;97.48
75740;BME280;64357;51.344;6.550;2023-03-14T09:11:13;98854.50;;;8.07;96.28
75740;BME280;64357;51.344;6.550;2023-03-14T09:13:38;98863.44;;;8.01;95.95
75740;BME280;64357;51.344;6.550;2023-03-14T09:16:05;98872.44;;;7.86;96.45
75740;BME280;64357;51.344;6.550;2023-03-14T09:18:31;98879.03;;;7.84;97.23
75740;BME280;64357;51.344;6.550;2023-03-14T09:20:58;98894.44;;;7.86;98.13
75740;BME280;64357;51.344;6.550;2023-03-14T09:23:26;98907.63;;;7.92;97.76
75740;BME280;64357;51.344;6.550;2023-03-14T09:25:58;98916.78;;;7.80;97.08
75740;BME280;64357;51.344;6.550;2023-03-14T09:28:24;98917.06;;;7.83;97.48
75740;BME280;64357;51.344;6.550;2023-03-14T09:30:50;98943.34;;;7.83;96.82
75740;BME280;64357;51.344;6.550;2023-03-14T09:33:18;98942.09;;;7.78;97.00
75740;BME280;64357;51.344;6.550;2023-03-14T09:35:44;98951.34;;;7.88;95.98
75740;BME280;64357;51.344;6.550;2023-03-14T09:38:09;98954.38;;;7.94;95.28
75740;BME280;64357;51.344;6.550;2023-03-14T09:40:36;98967.53;;;8.10;95.29
75740;BME280;64357;51.344;6.550;2023-03-14T09:43:02;98974.44;;;8.01;94.43
75740;BME280;64357;51.344;6.550;2023-03-14T09:45:34;98983.31;;;8.06;93.80
75740;BME280;64357;51.344;6.550;2023-03-14T09:48:03;98991.81;;;8.07;92.81
75740;BME280;64357;51.344;6.550;2023-03-14T09:50:40;99007.97;;;8.07;93.44
75740;BME280;64357;51.344;6.550;2023-03-14T09:53:37;99006.03;;;8.15;93.09
75740;BME280;64357;51.344;6.550;2023-03-14T09:55:57;99010.41;;;8.06;92.12
75740;BME280;64357;51.344;6.550;2023-03-14T09:58:26;99016.47;;;8.08;92.73
75740;BME280;64357;51.344;6.550;2023-03-14T10:00:54;99021.94;;;8.12;91.83
75740;BME280;64357;51.344;6.550;2023-03-14T10:05:52;99049.31;;;8.47;91.66
75740;BME280;64357;51.344;6.550;2023-03-14T10:08:18;99054.75;;;8.51;90.54
75740;BME280;64357;51.344;6.550;2023-03-14T10:10:43;99051.75;;;8.45;88.94
75740;BME280;64357;51.344;6.550;2023-03-14T10:13:26;99059.31;;;8.55;89.08
75740;BME280;64357;51.344;6.550;2023-03-14T10:16:01;99073.06;;;8.58;87.92
75740;BME280;64357;51.344;6.550;2023-03-14T10:18:29;99077.13;;;8.55;87.99
75740;BME280;64357;51.344;6.550;2023-03-14T10:21:26;99097.47;;;8.55;87.82
75740;BME280;64357;51.344;6.550;2023-03-14T10:23:52;99103.03;;;8.40;89.45
75740;BME280;64357;51.344;6.550;2023-03-14T10:26:24;99121.34;;;8.25;88.51
75740;BME280;64357;51.344;6.550;2023-03-14T10:28:53;99130.28;;;8.10;90.71
75740;BME280;64357;51.344;6.550;2023-03-14T10:31:24;99159.53;;;7.95;92.91
75740;BME280;64357;51.344;6.550;2023-03-14T10:34:09;99178.72;;;7.91;94.38
75740;BME280;64357;51.344;6.550;2023-03-14T10:36:40;99190.28;;;7.47;97.08
75740;BME280;64357;51.344;6.550;2023-03-14T10:41:52;99209.19;;;7.01;96.38
75740;BME280;64357;51.344;6.550;2023-03-14T10:44:21;99229.03;;;7.05;95.61
75740;BME280;64357;51.344;6.550;2023-03-14T10:46:56;99238.41;;;7.06;94.83
75740;BME280;64357;51.344;6.550;2023-03-14T10:49:31;99257.97;;;7.07;93.40
75740;BME280;64357;51.344;6.550;2023-03-14T10:52:02;99268.22;;;6.99;92.08
75740;BME280;64357;51.344;6.550;2023-03-14T10:54:35;99278.75;;;7.03;92.40
75740;BME280;64357;51.344;6.550;2023-03-14T10:57:04;99289.94;;;7.05;91.37
75740;BME280;64357;51.344;6.550;2023-03-14T10:59:35;99301.66;;;7.13;91.67
75740;BME280;64357;51.344;6.550;2023-03-14T11:07:33;99334.25;;;7.09;91.32
75740;BME280;64357;51.344;6.550;2023-03-14T11:10:11;99348.06;;;7.02;91.36
75740;BME280;64357;51.344;6.550;2023-03-14T11:15:34;99377.97;;;6.77;90.41
75740;BME280;64357;51.344;6.550;2023-03-14T11:18:24;99386.22;;;6.75;88.80
75740;BME280;64357;51.344;6.550;2023-03-14T11:24:02;99409.28;;;6.59;88.10
75740;BME280;64357;51.344;6.550;2023-03-14T11:31:46;99431.34;;;6.68;85.86
75740;BME280;64357;51.344;6.550;2023-03-14T11:37:00;99456.22;;;6.73;83.59
75740;BME280;64357;51.344;6.550;2023-03-14T11:39:37;99453.25;;;6.68;83.17
75740;BME280;64357;51.344;6.550;2023-03-14T11:42:03;99458.75;;;6.73;82.75
75740;BME280;64357;51.344;6.550;2023-03-14T11:44:39;99460.06;;;6.78;83.16
75740;BME280;64357;51.344;6.550;2023-03-14T11:50:02;99499.47;;;6.83;83.69
75740;BME280;64357;51.344;6.550;2023-03-14T11:52:32;99500.66;;;6.86;83.20
75740;BME280;64357;51.344;6.550;2023-03-14T11:55:15;99510.38;;;6.82;81.07
75740;BME280;64357;51.344;6.550;2023-03-14T11:57:43;99523.72;;;6.71;81.39
75740;BME280;64357;51.344;6.550;2023-03-14T12:10:43;99558.31;;;7.06;81.69
75740;BME280;64357;51.344;6.550;2023-03-14T12:13:12;99564.16;;;7.05;82.78
75740;BME280;64357;51.344;6.550;2023-03-14T12:15:40;99573.59;;;6.98;82.47
75740;BME280;64357;51.344;6.550;2023-03-14T12:18:26;99573.00;;;6.91;81.18
75740;BME280;64357;51.344;6.550;2023-03-14T12:20:57;99589.06;;;7.09;82.77
75740;BME280;64357;51.344;6.550;2023-03-14T12:23:24;99596.44;;;6.98;82.18
75740;BME280;64357;51.344;6.550;2023-03-14T12:26:43;99603.72;;;6.76;81.94
75740;BME280;64357;51.344;6.550;2023-03-14T12:29:16;99616.44;;;6.50;79.76
75740;BME280;64357;51.344;6.550;2023-03-14T12:39:41;99665.78;;;5.58;87.56
75740;BME280;64357;51.344;6.550;2023-03-14T12:42:12;99673.34;;;5.41;85.12
75740;BME280;64357;51.344;6.550;2023-03-14T12:44:49;99681.84;;;5.50;86.43
75740;BME280;64357;51.344;6.550;2023-03-14T12:49:51;99700.66;;;5.60;85.02
75740;BME280;64357;51.344;6.550;2023-03-14T12:55:37;99716.34;;;5.82;85.44
75740;BME280;64357;51.344;6.550;2023-03-14T13:00:41;99726.44;;;6.24;85.85
75740;BME280;64357;51.344;6.550;2023-03-14T13:03:19;99727.94;;;6.39;82.41
75740;BME280;64357;51.344;6.550;2023-03-14T13:05:56;99733.16;;;6.41;82.13
75740;BME280;64357;51.344;6.550;2023-03-14T13:08:43;99745.69;;;6.57;81.65
75740;BME280;64357;51.344;6.550;2023-03-14T13:11:14;99749.69;;;6.72;80.94
75740;BME280;64357;51.344;6.550;2023-03-14T13:13:49;99750.13;;;6.94;81.73
75740;BME280;64357;51.344;6.550;2023-03-14T13:16:22;99763.19;;;7.25;81.70
75740;BME280;64357;51.344;6.550;2023-03-14T13:18:59;99770.38;;;7.20;80.33
75740;BME280;64357;51.344;6.550;2023-03-14T13:21:27;99775.44;;;7.20;79.07
75740;BME280;64357;51.344;6.550;2023-03-14T13:26:32;99792.34;;;7.19;75.55
75740;BME280;64357;51.344;6.550;2023-03-14T13:28:59;99784.59;;;7.09;74.88
75740;BME280;64357;51.344;6.550;2023-03-14T13:31:26;99794.00;;;7.19;73.02
75740;BME280;64357;51.344;6.550;2023-03-14T13:34:07;99798.88;;;7.35;72.25
75740;BME280;64357;51.344;6.550;2023-03-14T13:36:37;99807.09;;;7.41;71.95
75740;BME280;64357;51.344;6.550;2023-03-14T13:39:09;99795.47;;;7.34;67.88
75740;BME280;64357;51.344;6.550;2023-03-14T13:41:40;99808.75;;;7.40;67.09
75740;BME280;64357;51.344;6.550;2023-03-14T13:44:09;99818.28;;;7.52;67.53
75740;BME280;64357;51.344;6.550;2023-03-14T13:46:40;99826.22;;;7.82;68.20
75740;BME280;64357;51.344;6.550;2023-03-14T13:49:09;99821.97;;;7.64;65.77
75740;BME280;64357;51.344;6.550;2023-03-14T13:51:38;99822.81;;;7.73;65.67
75740;BME280;64357;51.344;6.550;2023-03-14T13:54:13;99837.69;;;7.96;67.45
75740;BME280;64357;51.344;6.550;2023-03-14T13:56:39;99838.25;;;7.74;66.04
75740;BME280;64357;51.344;6.550;2023-03-14T13:59:21;99838.81;;;7.72;64.96
75740;BME280;64357;51.344;6.550;2023-03-14T14:01:47;99845.69;;;7.82;65.90
75740;BME280;64357;51.344;6.550;2023-03-14T14:04:20;99854.91;;;7.90;65.51
75740;BME280;64357;51.344;6.550;2023-03-14T14:07:00;99854.25;;;8.01;64.10
75740;BME280;64357;51.344;6.550;2023-03-14T14:09:36;99859.13;;;8.17;64.82
75740;BME280;64357;51.344;6.550;2023-03-14T14:12:11;99858.50;;;8.19;61.68
75740;BME280;64357;51.344;6.550;2023-03-14T14:14:43;99863.53;;;8.37;61.76
75740;BME280;64357;51.344;6.550;2023-03-14T14:17:11;99862.47;;;8.35;58.07
75740;BME280;64357;51.344;6.550;2023-03-14T14:19:40;99869.94;;;8.42;59.71
75740;BME280;64357;51.344;6.550;2023-03-14T14:22:08;99862.84;;;8.20;53.56
75740;BME280;64357;51.344;6.550;2023-03-14T14:24:37;99873.09;;;8.03;50.97
75740;BME280;64357;51.344;6.550;2023-03-14T14:29:43;99887.69;;;7.78;51.75
75740;BME280;64357;51.344;6.550;2023-03-14T14:32:14;99889.16;;;7.85;52.23